Time;durP1;ratioP1;P1;durP2;ratioP2;P2;SDS_P1;SDS_P2;PMS_P1;PMS_P2;Temp;Humidity;BMP_temperature;BMP_pressure;BME280_temperature;BME280_humidity;BME280_pressure;Samples;Min_cycle;Max_cycle;Signal;HPM_P1;HPM_P2
2024/03/23 00:01:49;;;;;;;;;;;;;;;;;;5025756;28;4691;-57
2024/03/23 00:04:15;;;;;;;;;;;;;;;;;;5029766;28;1254;-59
2024/03/23 00:06:41;;;;;;;;;;;;;;;;;;5027385;28;5019;-56
2024/03/23 00:09:07;;;;;;;;;;;;;;;;;;5021116;28;4920;-59
2024/03/23 00:11:36;;;;;;;;;;;;;;;;;;5025447;28;4536;-57
2024/03/23 00:14:02;;;;;;;;;;;;;;;;;;5027083;28;5148;-57
2024/03/23 00:16:28;;;;;;;;;;;;;;;;;;5029324;28;5134;-62
2024/03/23 00:18:54;;;;;;;;;;;;;;;;;;5041424;28;3682;-58
2024/03/23 00:21:20;;;;;;;;;;;;;;;;;;5022240;28;5301;-58
2024/03/23 00:23:46;;;;;;;;;;;;;;;;;;5024732;28;5194;-58
2024/03/23 00:26:12;;;;;;;;;;;;;;;;;;5024117;28;5096;-56
2024/03/23 00:28:37;;;;;;;;;;;;;;;;;;5025411;28;5320;-57
2024/03/23 00:31:03;;;;;;;;;;;;;;;;;;5026373;28;3272;-56
2024/03/23 00:33:29;;;;;;;;;;;;;;;;;;5023826;28;5085;-59
2024/03/23 00:35:55;;;;;;;;;;;;;;;;;;5020306;28;5057;-61
2024/03/23 00:38:22;;;;;;;;;;;;;;;;;;5023667;28;4813;-59
2024/03/23 00:40:47;;;;;;;;;;;;;;;;;;5021678;28;5068;-57
2024/03/23 00:43:13;;;;;;;;;;;;;;;;;;5018675;28;3416;-57
2024/03/23 00:45:39;;;;;;;;;;;;;;;;;;5022881;28;4979;-58
2024/03/23 00:48:05;;;;;;;;;;;;;;;;;;5024470;28;5194;-58
2024/03/23 00:50:31;;;;;;;;;;;;;;;;;;5015816;28;4746;-58
2024/03/23 00:52:57;;;;;;;;;;;;;;;;;;5017487;28;4588;-58
2024/03/23 00:55:22;;;;;;;;;;;;;;;;;;5020382;28;3336;-57
2024/03/23 00:57:48;;;;;;;;;;;;;;;;;;5022513;28;5192;-57
2024/03/23 01:00:13;;;;;;;;;;;;;;;;;;5022027;28;5224;-57
2024/03/23 01:02:39;;;;;;;;;;;;;;;;;;5020833;28;4594;-56
2024/03/23 01:05:04;;;;;;;;;;;;;;;;;;5020689;28;5120;-56
2024/03/23 01:07:29;;;;;;;;;;;;;;;;;;5020201;28;5099;-62
2024/03/23 01:09:55;;;;;;;;;;;;;;;;;;5024363;28;3533;-58
2024/03/23 01:12:20;;;;;;;;;;;;;;;;;;5019887;28;5193;-58
2024/03/23 01:14:45;;;;;;;;;;;;;;;;;;5020497;28;5069;-57
2024/03/23 01:17:11;;;;;;;;;;;;;;;;;;5022981;28;4749;-56
2024/03/23 01:19:36;;;;;;;;;;;;;;;;;;5019562;28;4920;-57
2024/03/23 01:22:01;;;;;;;;;;;;;;;;;;5023221;28;3240;-61
2024/03/23 01:24:27;;;;;;;;;;;;;;;;;;5021536;28;4637;-60
2024/03/23 01:26:52;;;;;;;;;;;;;;;;;;5018934;28;5180;-57
2024/03/23 01:29:17;;;;;;;;;;;;;;;;;;5023907;28;5119;-57
2024/03/23 01:31:43;;;;;;;;;;;;;;;;;;5020633;28;4756;-57
2024/03/23 01:34:08;;;;;;;;;;;;;;;;;;5021889;28;3322;-56
2024/03/23 01:36:34;;;;;;;;;;;;;;;;;;5018231;28;4460;-59
2024/03/23 01:38:59;;;;;;;;;;;;;;;;;;5024640;28;5152;-61
2024/03/23 01:41:24;;;;;;;;;;;;;;;;;;5024558;28;5309;-57
2024/03/23 01:43:50;;;;;;;;;;;;;;;;;;5022952;28;5136;-58
2024/03/23 01:46:15;;;;;;;;;;;;;;;;;;5024374;28;3346;-57
2024/03/23 01:48:40;;;;;;;;;;;;;;;;;;5018211;28;4661;-57
2024/03/23 01:51:06;;;;;;;;;;;;;;;;;;5020109;28;5338;-58
2024/03/23 01:53:31;;;;;;;;;;;;;;;;;;5023411;28;5200;-57
2024/03/23 01:55:57;;;;;;;;;;;;;;;;;;5023658;28;5250;-57
2024/03/23 01:58:22;;;;;;;;;;;;;;;;;;5027208;28;3076;-57
2024/03/23 02:00:47;;;;;;;;;;;;;;;;;;5020915;28;4984;-59
2024/03/23 02:03:23;;;;;;;;;;;;;;;;;;5021592;28;4450;-60
2024/03/23 02:05:48;;;;;;;;;;;;;;;;;;5022032;28;5553;-58
2024/03/23 02:08:14;;;;;;;;;;;;;;;;;;5019931;28;4522;-59
2024/03/23 02:10:39;;;;;;;;;;;;;;;;;;5016973;28;5069;-58
2024/03/23 02:13:05;;;;;;;;;;;;;;;;;;5017657;28;3423;-59
2024/03/23 02:15:30;;;;;;;;;;;;;;;;;;5020318;28;4621;-59
2024/03/23 02:17:55;;;;;;;;;;;;;;;;;;5023031;28;5189;-57
2024/03/23 02:20:21;;;;;;;;;;;;;;;;;;5021556;28;5197;-58
2024/03/23 02:22:46;;;;;;;;;;;;;;;;;;5021299;28;4576;-56
2024/03/23 02:25:11;;;;;;;;;;;;;;;;;;5019019;28;3367;-62
2024/03/23 02:27:38;;;;;;;;;;;;;;;;;;5020753;28;5141;-59
2024/03/23 02:30:04;;;;;;;;;;;;;;;;;;5023536;28;5040;-59
2024/03/23 02:32:30;;;;;;;;;;;;;;;;;;5017101;28;5097;-57
2024/03/23 02:34:55;;;;;;;;;;;;;;;;;;5023615;28;4535;-58
2024/03/23 02:37:20;;;;;;;;;;;;;;;;;;5026117;28;3315;-58
2024/03/23 02:39:46;;;;;;;;;;;;;;;;;;5023534;28;4982;-58
2024/03/23 02:42:11;;;;;;;;;;;;;;;;;;5025679;28;4736;-58
2024/03/23 02:44:36;;;;;;;;;;;;;;;;;;5023006;28;5119;-59
2024/03/23 02:47:02;;;;;;;;;;;;;;;;;;5026428;28;4683;-61
2024/03/23 02:49:27;;;;;;;;;;;;;;;;;;5019016;28;4684;-58
2024/03/23 02:51:53;;;;;;;;;;;;;;;;;;5024392;28;1977;-59
2024/03/23 02:54:18;;;;;;;;;;;;;;;;;;5026148;28;5109;-58
2024/03/23 02:56:43;;;;;;;;;;;;;;;;;;5025534;28;5087;-57
2024/03/23 02:59:09;;;;;;;;;;;;;;;;;;5026133;28;5093;-58
2024/03/23 03:01:34;;;;;;;;;;;;;;;;;;5025794;28;5184;-60
2024/03/23 03:04:00;;;;;;;;;;;;;;;;;;5027276;28;1085;-58
2024/03/23 03:06:26;;;;;;;;;;;;;;;;;;5024695;28;4416;-57
2024/03/23 03:08:51;;;;;;;;;;;;;;;;;;5025787;28;4989;-59
2024/03/23 03:11:16;;;;;;;;;;;;;;;;;;5024285;28;4709;-58
2024/03/23 03:13:42;;;;;;;;;;;;;;;;;;5026165;28;5080;-58
2024/03/23 03:16:10;;;;;;;;;;;;;;;;;;5028070;28;1344;-58
2024/03/23 03:18:36;;;;;;;;;;;;;;;;;;5028426;28;5077;-59
2024/03/23 03:21:02;;;;;;;;;;;;;;;;;;5029026;28;4989;-58
2024/03/23 03:23:27;;;;;;;;;;;;;;;;;;5026233;28;5201;-57
2024/03/23 03:25:52;;;;;;;;;;;;;;;;;;5027296;28;4555;-57
2024/03/23 03:28:18;;;;;;;;;;;;;;;;;;5029023;28;3327;-58
2024/03/23 03:30:43;;;;;;;;;;;;;;;;;;5029182;28;4813;-57
2024/03/23 03:33:08;;;;;;;;;;;;;;;;;;5023210;28;5022;-57
2024/03/23 03:35:34;;;;;;;;;;;;;;;;;;5028730;28;5166;-58
2024/03/23 03:37:59;;;;;;;;;;;;;;;;;;5027427;28;5062;-59
2024/03/23 03:40:25;;;;;;;;;;;;;;;;;;5030887;28;1246;-57
2024/03/23 03:42:50;;;;;;;;;;;;;;;;;;5028311;28;5140;-58
2024/03/23 03:45:15;;;;;;;;;;;;;;;;;;5027302;28;5087;-60
2024/03/23 03:47:41;;;;;;;;;;;;;;;;;;5028279;28;5011;-59
2024/03/23 03:50:06;;;;;;;;;;;;;;;;;;5026914;28;4739;-59
2024/03/23 03:52:32;;;;;;;;;;;;;;;;;;5020418;28;5211;-60
2024/03/23 03:55:02;;;;;;;;;;;;;;;;;;5030178;28;1214;-59
2024/03/23 03:57:27;;;;;;;;;;;;;;;;;;5028815;28;5010;-59
2024/03/23 03:59:52;;;;;;;;;;;;;;;;;;5029799;28;4686;-57
2024/03/23 04:02:18;;;;;;;;;;;;;;;;;;5028669;28;4952;-57
2024/03/23 04:04:43;;;;;;;;;;;;;;;;;;5027446;28;5116;-57
2024/03/23 04:07:08;;;;;;;;;;;;;;;;;;5028303;28;3362;-58
2024/03/23 04:09:34;;;;;;;;;;;;;;;;;;5025359;28;4432;-57
2024/03/23 04:11:59;;;;;;;;;;;;;;;;;;5027394;28;4715;-59
2024/03/23 04:14:24;;;;;;;;;;;;;;;;;;5027848;28;4856;-57
2024/03/23 04:16:50;;;;;;;;;;;;;;;;;;5026280;28;4640;-59
2024/03/23 04:19:15;;;;;;;;;;;;;;;;;;5027895;28;3287;-58
2024/03/23 04:21:40;;;;;;;;;;;;;;;;;;5024971;28;5034;-59
2024/03/23 04:24:06;;;;;;;;;;;;;;;;;;5025597;28;4467;-58
2024/03/23 04:26:40;;;;;;;;;;;;;;;;;;5025922;28;5529;-59
2024/03/23 04:29:06;;;;;;;;;;;;;;;;;;5037216;28;5102;-57
2024/03/23 04:31:32;;;;;;;;;;;;;;;;;;5027932;28;5673;-60
2024/03/23 04:33:57;;;;;;;;;;;;;;;;;;5028204;28;1359;-60
2024/03/23 04:36:22;;;;;;;;;;;;;;;;;;5027491;28;4466;-59
2024/03/23 04:38:49;;;;;;;;;;;;;;;;;;5025632;28;4527;-58
2024/03/23 04:41:15;;;;;;;;;;;;;;;;;;5028137;28;5097;-58
2024/03/23 04:43:40;;;;;;;;;;;;;;;;;;5023328;28;4968;-59
2024/03/23 04:46:06;;;;;;;;;;;;;;;;;;5025016;28;3366;-58
2024/03/23 04:48:31;;;;;;;;;;;;;;;;;;5028131;28;5086;-58
2024/03/23 04:50:57;;;;;;;;;;;;;;;;;;5026268;28;4891;-58
2024/03/23 04:53:24;;;;;;;;;;;;;;;;;;5024462;28;5272;-58
2024/03/23 04:55:50;;;;;;;;;;;;;;;;;;5027419;28;5087;-57
2024/03/23 04:58:15;;;;;;;;;;;;;;;;;;5028915;28;1213;-58
2024/03/23 05:00:40;;;;;;;;;;;;;;;;;;5024398;28;4973;-57
2024/03/23 05:03:06;;;;;;;;;;;;;;;;;;5021242;28;4418;-58
2024/03/23 05:05:31;;;;;;;;;;;;;;;;;;5026109;28;5010;-58
2024/03/23 05:07:56;;;;;;;;;;;;;;;;;;5023892;28;5382;-59
2024/03/23 05:10:22;;;;;;;;;;;;;;;;;;5024009;28;3336;-58
2024/03/23 05:12:47;;;;;;;;;;;;;;;;;;5026268;28;4889;-57
2024/03/23 05:15:13;;;;;;;;;;;;;;;;;;5026300;28;4983;-57
2024/03/23 05:17:38;;;;;;;;;;;;;;;;;;5025964;28;4602;-58
2024/03/23 05:20:04;;;;;;;;;;;;;;;;;;5026886;28;4924;-59
2024/03/23 05:22:30;;;;;;;;;;;;;;;;;;5025050;28;5301;-61
2024/03/23 05:24:56;;;;;;;;;;;;;;;;;;5024735;28;3358;-58
2024/03/23 05:27:21;;;;;;;;;;;;;;;;;;5023874;28;4515;-59
2024/03/23 05:29:47;;;;;;;;;;;;;;;;;;5021337;28;5244;-58
2024/03/23 05:32:12;;;;;;;;;;;;;;;;;;5026226;28;4738;-59
2024/03/23 05:34:38;;;;;;;;;;;;;;;;;;5026778;28;4637;-60
2024/03/23 05:37:04;;;;;;;;;;;;;;;;;;5028544;28;1197;-59
2024/03/23 05:39:29;;;;;;;;;;;;;;;;;;5020406;28;5139;-61
2024/03/23 05:41:55;;;;;;;;;;;;;;;;;;5023576;28;4526;-58
2024/03/23 05:44:20;;;;;;;;;;;;;;;;;;5026532;28;5068;-59
2024/03/23 05:46:48;;;;;;;;;;;;;;;;;;5023493;28;5056;-57
2024/03/23 05:49:13;;;;;;;;;;;;;;;;;;5026712;28;3338;-59
2024/03/23 05:51:39;;;;;;;;;;;;;;;;;;5023022;28;4551;-61
2024/03/23 05:54:04;;;;;;;;;;;;;;;;;;5026323;28;5170;-59
2024/03/23 05:56:30;;;;;;;;;;;;;;;;;;5025812;28;5543;-61
2024/03/23 05:58:55;;;;;;;;;;;;;;;;;;5023066;28;5257;-57
2024/03/23 06:01:20;;;;;;;;;;;;;;;;;;5026422;28;3177;-59
2024/03/23 06:03:46;;;;;;;;;;;;;;;;;;5021105;28;5051;-57
2024/03/23 06:06:11;;;;;;;;;;;;;;;;;;5021708;28;5169;-59
2024/03/23 06:08:37;;;;;;;;;;;;;;;;;;5025685;28;5098;-58
2024/03/23 06:11:02;;;;;;;;;;;;;;;;;;5022542;28;5058;-58
2024/03/23 06:13:30;;;;;;;;;;;;;;;;;;5025012;28;5157;-56
2024/03/23 06:15:56;;;;;;;;;;;;;;;;;;5021614;28;3406;-57
2024/03/23 06:18:21;;;;;;;;;;;;;;;;;;5020315;28;4631;-58
2024/03/23 06:20:46;;;;;;;;;;;;;;;;;;5019042;28;5117;-56
2024/03/23 06:23:12;;;;;;;;;;;;;;;;;;5022774;28;4539;-57
2024/03/23 06:25:38;;;;;;;;;;;;;;;;;;5019230;28;5125;-58
2024/03/23 06:28:04;;;;;;;;;;;;;;;;;;5024683;28;3358;-58
2024/03/23 06:30:29;;;;;;;;;;;;;;;;;;5025976;28;5048;-60
2024/03/23 06:32:55;;;;;;;;;;;;;;;;;;5023928;28;4972;-57
2024/03/23 06:35:20;;;;;;;;;;;;;;;;;;5025933;28;4464;-57
2024/03/23 06:37:45;;;;;;;;;;;;;;;;;;5031736;28;4674;-62
2024/03/23 06:40:11;;;;;;;;;;;;;;;;;;5021681;28;3454;-58
2024/03/23 06:42:36;;;;;;;;;;;;;;;;;;5022371;28;4615;-57
2024/03/23 06:45:03;;;;;;;;;;;;;;;;;;5016655;28;5120;-57
2024/03/23 06:47:28;;;;;;;;;;;;;;;;;;5019506;28;5371;-56
2024/03/23 06:49:54;;;;;;;;;;;;;;;;;;5024952;28;5063;-65
2024/03/23 06:52:19;;;;;;;;;;;;;;;;;;5029376;28;1909;-56
2024/03/23 06:54:45;;;;;;;;;;;;;;;;;;5030877;28;5051;-57
2024/03/23 06:57:11;;;;;;;;;;;;;;;;;;5027782;28;5132;-58
2024/03/23 06:59:37;;;;;;;;;;;;;;;;;;5027375;28;5187;-60
2024/03/23 07:02:02;;;;;;;;;;;;;;;;;;5023133;28;5262;-62
2024/03/23 07:04:28;;;;;;;;;;;;;;;;;;5028362;28;5324;-62
2024/03/23 07:06:53;;;;;;;;;;;;;;;;;;5022983;28;3314;-59
2024/03/23 07:09:19;;;;;;;;;;;;;;;;;;5018584;28;4510;-57
2024/03/23 07:11:45;;;;;;;;;;;;;;;;;;5020932;28;4913;-57
2024/03/23 07:14:12;;;;;;;;;;;;;;;;;;5022433;28;4905;-60
2024/03/23 07:16:37;;;;;;;;;;;;;;;;;;5022186;28;4524;-59
2024/03/23 07:19:02;;;;;;;;;;;;;;;;;;5022819;28;3605;-72
2024/03/23 07:21:28;;;;;;;;;;;;;;;;;;5010528;28;5065;-74
2024/03/23 07:23:53;;;;;;;;;;;;;;;;;;5022937;28;5263;-73
2024/03/23 07:26:18;;;;;;;;;;;;;;;;;;5022693;28;5186;-70
2024/03/23 07:28:46;;;;;;;;;;;;;;;;;;5018762;28;4525;-69
2024/03/23 07:31:11;;;;;;;;;;;;;;;;;;5018274;28;3821;-71
2024/03/23 07:33:37;;;;;;;;;;;;;;;;;;5028603;28;4706;-69
2024/03/23 07:36:03;;;;;;;;;;;;;;;;;;5022796;28;4987;-71
2024/03/23 07:38:28;;;;;;;;;;;;;;;;;;5023276;28;5080;-71
2024/03/23 07:41:04;;;;;;;;;;;;;;;;;;5026238;28;5010;-71
2024/03/23 07:43:29;;;;;;;;;;;;;;;;;;5028115;28;4531;-70
2024/03/23 07:45:54;;;;;;;;;;;;;;;;;;5022973;28;3504;-71
2024/03/23 07:48:23;;;;;;;;;;;;;;;;;;5027677;28;4984;-69
2024/03/23 07:51:01;;;;;;;;;;;;;;;;;;5017909;28;5056;-67
2024/03/23 07:53:27;;;;;;;;;;;;;;;;;;5025208;28;5110;-68
2024/03/23 07:55:54;;;;;;;;;;;;;;;;;;5020612;28;5186;-69
2024/03/23 07:58:19;;;;;;;;;;;;;;;;;;5026760;28;3408;-70
2024/03/23 08:00:45;;;;;;;;;;;;;;;;;;5022098;28;4854;-70
2024/03/23 08:03:10;;;;;;;;;;;;;;;;;;5023110;28;5056;-70
2024/03/23 08:05:35;;;;;;;;;;;;;;;;;;5023613;28;5104;-70
2024/03/23 08:08:01;;;;;;;;;;;;;;;;;;5011373;28;5111;-69
2024/03/23 08:10:26;;;;;;;;;;;;;;;;;;5023330;28;4527;-69
2024/03/23 08:12:51;;;;;;;;;;;;;;;;;;5023216;28;3412;-68
2024/03/23 08:15:17;;;;;;;;;;;;;;;;;;5019630;28;5057;-68
2024/03/23 08:17:42;;;;;;;;;;;;;;;;;;5022029;28;5233;-68
2024/03/23 08:20:08;;;;;;;;;;;;;;;;;;5016277;28;4609;-68
2024/03/23 08:22:33;;;;;;;;;;;;;;;;;;5020485;28;5140;-69
2024/03/23 08:24:58;;;;;;;;;;;;;;;;;;5023979;28;3331;-68
2024/03/23 08:27:24;;;;;;;;;;;;;;;;;;5022629;28;4671;-68
2024/03/23 08:29:49;;;;;;;;;;;;;;;;;;5019833;28;5058;-68
2024/03/23 08:32:14;;;;;;;;;;;;;;;;;;5020967;28;5194;-68
2024/03/23 08:34:40;;;;;;;;;;;;;;;;;;5022220;28;4675;-68
2024/03/23 08:37:05;;;;;;;;;;;;;;;;;;5022650;28;3212;-68
2024/03/23 08:39:31;;;;;;;;;;;;;;;;;;5023804;28;4513;-69
2024/03/23 08:41:56;;;;;;;;;;;;;;;;;;5024554;28;5073;-61
2024/03/23 08:44:21;;;;;;;;;;;;;;;;;;5023803;28;5109;-60
2024/03/23 08:46:47;;;;;;;;;;;;;;;;;;5012469;28;4789;-60
2024/03/23 08:49:14;;;;;;;;;;;;;;;;;;5020607;28;3497;-61
2024/03/23 08:51:39;;;;;;;;;;;;;;;;;;5013804;28;5592;-61
2024/03/23 08:54:04;;;;;;;;;;;;;;;;;;5018543;28;4923;-62
2024/03/23 08:56:30;;;;;;;;;;;;;;;;;;5019917;28;4747;-63
2024/03/23 08:58:55;;;;;;;;;;;;;;;;;;5022412;28;5356;-64
2024/03/23 09:01:21;;;;;;;;;;;;;;;;;;5023372;28;4547;-62
2024/03/23 09:03:46;;;;;;;;;;;;;;;;;;5017803;28;4606;-63
2024/03/23 09:06:12;;;;;;;;;;;;;;;;;;5021293;28;5006;-62
2024/03/23 09:08:39;;;;;;;;;;;;;;;;;;5020460;28;5072;-62
2024/03/23 09:11:08;;;;;;;;;;;;;;;;;;5017999;28;5083;-63
2024/03/23 09:13:33;;;;;;;;;;;;;;;;;;5021542;28;5157;-64
2024/03/23 09:15:59;;;;;;;;;;;;;;;;;;5020562;28;3475;-64
2024/03/23 09:18:24;;;;;;;;;;;;;;;;;;5021080;28;4559;-63
2024/03/23 09:20:49;;;;;;;;;;;;;;;;;;5015511;28;4948;-62
2024/03/23 09:23:15;;;;;;;;;;;;;;;;;;5020523;28;5122;-61
2024/03/23 09:25:40;;;;;;;;;;;;;;;;;;5018318;28;5262;-61
2024/03/23 09:28:06;;;;;;;;;;;;;;;;;;5018236;28;3424;-64
2024/03/23 09:30:32;;;;;;;;;;;;;;;;;;5018603;28;5038;-65
2024/03/23 09:32:57;;;;;;;;;;;;;;;;;;5019895;28;4471;-65
2024/03/23 09:35:23;;;;;;;;;;;;;;;;;;5018622;28;5102;-65
2024/03/23 09:37:48;;;;;;;;;;;;;;;;;;5017284;28;5032;-62
2024/03/23 09:40:13;;;;;;;;;;;;;;;;;;5019794;28;3299;-62
2024/03/23 09:42:39;;;;;;;;;;;;;;;;;;5020205;28;5026;-62
2024/03/23 09:45:05;;;;;;;;;;;;;;;;;;5016327;28;5078;-63
2024/03/23 09:47:31;;;;;;;;;;;;;;;;;;5012985;28;5165;-66
2024/03/23 09:49:56;;;;;;;;;;;;;;;;;;5015560;28;4714;-63
2024/03/23 09:52:21;;;;;;;;;;;;;;;;;;5018165;28;3568;-64
2024/03/23 09:54:47;;;;;;;;;;;;;;;;;;5017531;28;4886;-64
2024/03/23 09:57:12;;;;;;;;;;;;;;;;;;5019263;28;5079;-64
2024/03/23 09:59:37;;;;;;;;;;;;;;;;;;5017003;28;4559;-66
2024/03/23 10:02:03;;;;;;;;;;;;;;;;;;5017546;28;4807;-63
2024/03/23 10:04:40;;;;;;;;;;;;;;;;;;5014527;28;4597;-64
2024/03/23 10:07:22;;;;;;;;;;;;;;;;;;5016130;28;3467;-62
2024/03/23 10:09:47;;;;;;;;;;;;;;;;;;5016777;28;4968;-62
2024/03/23 10:12:14;;;;;;;;;;;;;;;;;;5015970;28;5094;-65
2024/03/23 10:14:40;;;;;;;;;;;;;;;;;;5014863;28;5035;-65
2024/03/23 10:17:17;;;;;;;;;;;;;;;;;;5019511;28;4810;-60
2024/03/23 10:19:42;;;;;;;;;;;;;;;;;;5016065;28;4584;-65
2024/03/23 10:22:08;;;;;;;;;;;;;;;;;;5021182;28;3966;-62
2024/03/23 10:24:34;;;;;;;;;;;;;;;;;;5022114;28;5688;-63
2024/03/23 10:27:00;;;;;;;;;;;;;;;;;;5012855;28;5029;-61
2024/03/23 10:29:27;;;;;;;;;;;;;;;;;;5016472;28;4718;-59
2024/03/23 10:31:52;;;;;;;;;;;;;;;;;;5015685;28;5270;-58
2024/03/23 10:34:24;;;;;;;;;;;;;;;;;;5039283;28;3785;-61
2024/03/23 10:36:50;;;;;;;;;;;;;;;;;;5023647;28;5070;-60
2024/03/23 10:39:17;;;;;;;;;;;;;;;;;;5032131;28;5071;-60
2024/03/23 10:41:42;;;;;;;;;;;;;;;;;;5028075;28;4740;-61
2024/03/23 10:44:07;;;;;;;;;;;;;;;;;;5026600;28;5105;-62
2024/03/23 10:46:33;;;;;;;;;;;;;;;;;;5018117;28;4548;-62
2024/03/23 10:48:58;;;;;;;;;;;;;;;;;;5026629;28;3418;-63
2024/03/23 10:51:24;;;;;;;;;;;;;;;;;;5019803;28;4458;-62
2024/03/23 10:53:49;;;;;;;;;;;;;;;;;;5032400;28;4718;-61
2024/03/23 10:56:14;;;;;;;;;;;;;;;;;;5036676;28;4531;-62
2024/03/23 10:58:49;;;;;;;;;;;;;;;;;;5022370;28;4661;-62
2024/03/23 11:01:15;;;;;;;;;;;;;;;;;;5020929;28;3461;-63
2024/03/23 11:03:44;;;;;;;;;;;;;;;;;;5016220;28;5003;-61
2024/03/23 11:06:10;;;;;;;;;;;;;;;;;;5013729;28;4875;-63
2024/03/23 11:08:38;;;;;;;;;;;;;;;;;;5018671;28;4587;-61
2024/03/23 11:11:23;;;;;;;;;;;;;;;;;;5021185;28;4979;-63
2024/03/23 11:13:52;;;;;;;;;;;;;;;;;;5023214;28;4562;-63
2024/03/23 11:16:17;;;;;;;;;;;;;;;;;;5025734;28;3402;-63
2024/03/23 11:18:43;;;;;;;;;;;;;;;;;;5019371;28;4931;-62
2024/03/23 11:21:09;;;;;;;;;;;;;;;;;;5024767;28;4920;-60
2024/03/23 11:23:34;;;;;;;;;;;;;;;;;;5019815;28;5098;-61
2024/03/23 11:25:59;;;;;;;;;;;;;;;;;;5017567;28;4917;-65
2024/03/23 11:28:25;;;;;;;;;;;;;;;;;;5023021;28;2111;-58
2024/03/23 11:30:50;;;;;;;;;;;;;;;;;;5020290;28;5037;-61
2024/03/23 11:33:16;;;;;;;;;;;;;;;;;;5023190;28;4526;-61
2024/03/23 11:35:41;;;;;;;;;;;;;;;;;;5018345;28;5180;-58
2024/03/23 11:38:06;;;;;;;;;;;;;;;;;;5022033;28;5195;-58
2024/03/23 11:40:32;;;;;;;;;;;;;;;;;;5023041;28;5132;-60
2024/03/23 11:42:58;;;;;;;;;;;;;;;;;;5030314;28;3271;-59
2024/03/23 11:45:24;;;;;;;;;;;;;;;;;;5034690;28;5097;-61
2024/03/23 11:48:01;;;;;;;;;;;;;;;;;;5029743;28;4744;-58
2024/03/23 11:50:26;;;;;;;;;;;;;;;;;;5021645;28;4511;-57
2024/03/23 11:52:51;;;;;;;;;;;;;;;;;;5026711;28;5078;-57
2024/03/23 11:55:17;;;;;;;;;;;;;;;;;;5021794;28;3405;-57
2024/03/23 11:57:42;;;;;;;;;;;;;;;;;;5022661;28;5117;-58
2024/03/23 12:00:26;;;;;;;;;;;;;;;;;;5028371;28;5141;-58
2024/03/23 12:02:52;;;;;;;;;;;;;;;;;;5029512;28;4670;-59
2024/03/23 12:05:18;;;;;;;;;;;;;;;;;;5029106;28;4954;-58
2024/03/23 12:07:43;;;;;;;;;;;;;;;;;;5026881;28;5240;-57
2024/03/23 12:10:08;;;;;;;;;;;;;;;;;;5024458;28;2150;-58
2024/03/23 12:12:34;;;;;;;;;;;;;;;;;;5024595;28;5328;-58
2024/03/23 12:15:06;;;;;;;;;;;;;;;;;;5023175;28;5127;-57
2024/03/23 12:17:32;;;;;;;;;;;;;;;;;;5027132;28;5677;-57
2024/03/23 12:19:57;;;;;;;;;;;;;;;;;;5018218;28;5362;-58
2024/03/23 12:22:22;;;;;;;;;;;;;;;;;;5027478;28;3426;-57
2024/03/23 12:24:48;;;;;;;;;;;;;;;;;;5030294;28;5267;-58
2024/03/23 12:27:14;;;;;;;;;;;;;;;;;;5017901;28;5246;-52
2024/03/23 12:29:41;;;;;;;;;;;;;;;;;;5027831;28;4931;-55
2024/03/23 12:32:07;;;;;;;;;;;;;;;;;;5026510;28;5856;-63
2024/03/23 12:34:32;;;;;;;;;;;;;;;;;;5029152;28;4921;-63
2024/03/23 12:36:57;;;;;;;;;;;;;;;;;;5024887;28;1380;-69
2024/03/23 12:39:23;;;;;;;;;;;;;;;;;;5025835;28;4841;-70
2024/03/23 12:41:48;;;;;;;;;;;;;;;;;;5025472;28;5037;-72
2024/03/23 12:44:15;;;;;;;;;;;;;;;;;;5026665;28;4757;-68
2024/03/23 12:46:40;;;;;;;;;;;;;;;;;;5023957;28;4749;-61
2024/03/23 12:49:06;;;;;;;;;;;;;;;;;;5025326;28;1255;-63
2024/03/23 12:51:31;;;;;;;;;;;;;;;;;;5019642;28;4645;-63
2024/03/23 12:53:57;;;;;;;;;;;;;;;;;;5025091;28;4516;-60
2024/03/23 12:56:22;;;;;;;;;;;;;;;;;;5027478;28;5173;-67
2024/03/23 12:58:54;;;;;;;;;;;;;;;;;;5021144;28;5112;-67
2024/03/23 13:01:20;;;;;;;;;;;;;;;;;;5022556;28;3323;-67
2024/03/23 13:03:48;;;;;;;;;;;;;;;;;;5021350;28;4872;-62
2024/03/23 13:06:14;;;;;;;;;;;;;;;;;;5026700;28;5252;-60
2024/03/23 13:08:43;;;;;;;;;;;;;;;;;;5017382;28;5210;-62
2024/03/23 13:11:10;;;;;;;;;;;;;;;;;;5016637;28;5075;-58
2024/03/23 13:13:35;;;;;;;;;;;;;;;;;;5034195;28;4910;-57
2024/03/23 13:16:02;;;;;;;;;;;;;;;;;;5024069;28;3341;-58
2024/03/23 13:18:28;;;;;;;;;;;;;;;;;;5027196;28;5129;-56
2024/03/23 13:20:53;;;;;;;;;;;;;;;;;;5027539;28;4879;-57
2024/03/23 13:23:18;;;;;;;;;;;;;;;;;;5027365;28;4479;-54
2024/03/23 13:25:56;;;;;;;;;;;;;;;;;;5018277;28;5129;-52
2024/03/23 13:28:21;;;;;;;;;;;;;;;;;;5020000;28;1587;-54
2024/03/23 13:30:53;;;;;;;;;;;;;;;;;;5024121;28;5013;-53
2024/03/23 13:33:18;;;;;;;;;;;;;;;;;;5023777;28;5119;-58
2024/03/23 13:35:53;;;;;;;;;;;;;;;;;;5005522;28;5175;-54
2024/03/23 13:38:18;;;;;;;;;;;;;;;;;;5023328;28;4789;-53
2024/03/23 13:40:53;;;;;;;;;;;;;;;;;;5018650;28;5115;-63
2024/03/23 13:43:19;;;;;;;;;;;;;;;;;;5017468;28;3153;-55
2024/03/23 13:45:44;;;;;;;;;;;;;;;;;;5023443;28;4590;-52
2024/03/23 13:48:09;;;;;;;;;;;;;;;;;;5016218;28;5053;-53
2024/03/23 13:50:35;;;;;;;;;;;;;;;;;;5013056;28;5238;-54
2024/03/23 13:53:00;;;;;;;;;;;;;;;;;;5025767;28;5121;-64
2024/03/23 13:55:26;;;;;;;;;;;;;;;;;;5024752;28;3287;-54
2024/03/23 13:57:51;;;;;;;;;;;;;;;;;;5027416;28;5383;-58
2024/03/23 14:00:18;;;;;;;;;;;;;;;;;;5019222;28;5303;-56
2024/03/23 14:02:43;;;;;;;;;;;;;;;;;;5024806;28;5138;-52
2024/03/23 14:05:09;;;;;;;;;;;;;;;;;;5024461;28;5090;-61
2024/03/23 14:07:34;;;;;;;;;;;;;;;;;;5023307;28;5059;-57
2024/03/23 14:10:02;;;;;;;;;;;;;;;;;;5020856;28;3220;-55
2024/03/23 14:12:28;;;;;;;;;;;;;;;;;;5020789;28;5035;-56
2024/03/23 14:14:53;;;;;;;;;;;;;;;;;;5027114;28;4699;-53
2024/03/23 14:17:19;;;;;;;;;;;;;;;;;;5010682;28;4794;-55
2024/03/23 14:19:44;;;;;;;;;;;;;;;;;;5024361;28;5044;-60
2024/03/23 14:22:10;;;;;;;;;;;;;;;;;;5022712;28;3588;-56
2024/03/23 14:24:35;;;;;;;;;;;;;;;;;;5024473;28;4460;-55
2024/03/23 14:27:04;;;;;;;;;;;;;;;;;;5019859;28;5105;-60
2024/03/23 14:29:30;;;;;;;;;;;;;;;;;;5023868;28;4581;-55
2024/03/23 14:31:55;;;;;;;;;;;;;;;;;;5021642;28;4796;-54
2024/03/23 14:34:20;;;;;;;;;;;;;;;;;;5028054;28;1120;-56
2024/03/23 14:36:46;;;;;;;;;;;;;;;;;;5019422;28;5057;-53
2024/03/23 14:39:12;;;;;;;;;;;;;;;;;;5018109;28;4578;-56
2024/03/23 14:41:38;;;;;;;;;;;;;;;;;;5022715;28;4450;-56
2024/03/23 14:44:03;;;;;;;;;;;;;;;;;;5018238;28;4578;-55
2024/03/23 14:46:29;;;;;;;;;;;;;;;;;;5027107;28;5051;-55
2024/03/23 14:48:55;;;;;;;;;;;;;;;;;;5019916;28;3195;-54
2024/03/23 14:51:21;;;;;;;;;;;;;;;;;;5018844;28;4890;-52
2024/03/23 14:53:48;;;;;;;;;;;;;;;;;;5024040;28;4981;-56
2024/03/23 14:56:15;;;;;;;;;;;;;;;;;;5025620;28;5074;-54
2024/03/23 14:58:41;;;;;;;;;;;;;;;;;;5018880;28;5150;-57
2024/03/23 15:01:10;;;;;;;;;;;;;;;;;;5027299;28;1117;-56
2024/03/23 15:03:35;;;;;;;;;;;;;;;;;;5018372;28;5027;-54
2024/03/23 15:06:01;;;;;;;;;;;;;;;;;;5023234;28;5049;-62
2024/03/23 15:08:29;;;;;;;;;;;;;;;;;;5025245;28;4477;-56
2024/03/23 15:10:55;;;;;;;;;;;;;;;;;;5020721;28;5190;-53
2024/03/23 15:13:22;;;;;;;;;;;;;;;;;;5022784;28;3296;-55
2024/03/23 15:15:48;;;;;;;;;;;;;;;;;;5040161;28;5157;-55
2024/03/23 15:18:18;;;;;;;;;;;;;;;;;;5024034;28;4487;-57
2024/03/23 15:20:53;;;;;;;;;;;;;;;;;;5030392;28;5056;-56
2024/03/23 15:23:18;;;;;;;;;;;;;;;;;;5020076;28;5231;-57
2024/03/23 15:25:44;;;;;;;;;;;;;;;;;;5022116;28;5326;-57
2024/03/23 15:28:09;;;;;;;;;;;;;;;;;;5024932;28;3361;-54
2024/03/23 15:30:35;;;;;;;;;;;;;;;;;;5026074;28;4532;-56
2024/03/23 15:33:00;;;;;;;;;;;;;;;;;;5029092;28;5844;-53
2024/03/23 15:35:25;;;;;;;;;;;;;;;;;;5030221;28;5005;-55
2024/03/23 15:37:51;;;;;;;;;;;;;;;;;;5024490;28;5153;-52
2024/03/23 15:40:16;;;;;;;;;;;;;;;;;;5025831;28;3358;-57
2024/03/23 15:42:41;;;;;;;;;;;;;;;;;;5028369;28;4646;-57
2024/03/23 15:45:07;;;;;;;;;;;;;;;;;;5029978;28;5152;-55
2024/03/23 15:47:33;;;;;;;;;;;;;;;;;;5030124;28;5656;-56
2024/03/23 15:49:58;;;;;;;;;;;;;;;;;;5028407;28;5179;-54
2024/03/23 15:52:23;;;;;;;;;;;;;;;;;;5021369;28;3275;-57
2024/03/23 15:54:49;;;;;;;;;;;;;;;;;;5027212;28;5070;-53
2024/03/23 15:57:15;;;;;;;;;;;;;;;;;;5021048;28;4443;-58
2024/03/23 15:59:41;;;;;;;;;;;;;;;;;;5029817;28;4641;-56
2024/03/23 16:02:06;;;;;;;;;;;;;;;;;;5024301;28;5481;-57
2024/03/23 16:04:32;;;;;;;;;;;;;;;;;;5029697;28;5030;-56
2024/03/23 16:06:57;;;;;;;;;;;;;;;;;;5024429;28;3374;-56
2024/03/23 16:09:23;;;;;;;;;;;;;;;;;;5022634;28;5101;-53
2024/03/23 16:11:48;;;;;;;;;;;;;;;;;;5029571;28;4619;-52
2024/03/23 16:14:13;;;;;;;;;;;;;;;;;;5029722;28;5032;-54
2024/03/23 16:16:39;;;;;;;;;;;;;;;;;;5027878;28;5266;-53
2024/03/23 16:19:04;;;;;;;;;;;;;;;;;;5027858;28;1279;-53
2024/03/23 16:21:29;;;;;;;;;;;;;;;;;;5027445;28;5225;-56
2024/03/23 16:23:55;;;;;;;;;;;;;;;;;;5019870;28;4705;-53
2024/03/23 16:26:20;;;;;;;;;;;;;;;;;;5025208;28;5194;-59
2024/03/23 16:28:48;;;;;;;;;;;;;;;;;;5026865;28;4663;-55
2024/03/23 16:31:13;;;;;;;;;;;;;;;;;;5018721;28;3434;-53
2024/03/23 16:33:39;;;;;;;;;;;;;;;;;;5028786;28;4976;-56
2024/03/23 16:36:05;;;;;;;;;;;;;;;;;;5029185;28;4844;-53
2024/03/23 16:38:32;;;;;;;;;;;;;;;;;;5028481;28;5311;-59
2024/03/23 16:41:01;;;;;;;;;;;;;;;;;;5025945;28;5251;-54
2024/03/23 16:43:27;;;;;;;;;;;;;;;;;;5029617;28;4974;-58
2024/03/23 16:45:59;;;;;;;;;;;;;;;;;;5026367;28;1188;-56
2024/03/23 16:48:24;;;;;;;;;;;;;;;;;;5024648;28;5727;-51
2024/03/23 16:50:49;;;;;;;;;;;;;;;;;;5025476;28;5165;-55
2024/03/23 16:53:15;;;;;;;;;;;;;;;;;;5021160;28;5179;-53
2024/03/23 16:55:40;;;;;;;;;;;;;;;;;;5019342;28;5042;-63